Time;durP1;ratioP1;P1;durP2;ratioP2;P2;SDS_P1;SDS_P2;PMS_P1;PMS_P2;Temp;Humidity;BMP_temperature;BMP_pressure;BME280_temperature;BME280_humidity;BME280_pressure;Samples;Min_cycle;Max_cycle;Signal;HPM_P1;HPM_P2
2023/01/17 04:02:04;;;;;;;6.70;6.37;;;2.70;99.90;;;;;;5161468;23;20283;-80
2023/01/17 04:04:30;;;;;;;6.60;6.20;;;2.80;99.90;;;;;;4871098;29;20216;-80
2023/01/17 04:06:56;;;;;;;6.40;6.10;;;2.70;99.90;;;;;;4870678;29;20899;-80
2023/01/17 04:09:22;;;;;;;6.60;6.30;;;2.70;99.90;;;;;;4863264;29;20199;-79
2023/01/17 04:11:49;;;;;;;6.30;6.00;;;2.70;99.90;;;;;;4840591;29;20280;-80
2023/01/17 04:14:16;;;;;;;6.83;6.53;;;2.70;99.90;;;;;;4831625;29;20201;-78
2023/01/17 04:16:42;;;;;;;6.47;6.17;;;2.70;99.90;;;;;;4831087;29;20190;-78
2023/01/17 04:19:11;;;;;;;6.97;6.47;;;2.70;99.90;;;;;;4824573;29;20194;-67
2023/01/17 04:21:37;;;;;;;7.63;7.03;;;2.70;99.90;;;;;;4822160;29;20208;-66
2023/01/17 04:24:03;;;;;;;23.13;22.10;;;2.70;99.90;;;;;;4818008;29;20227;-67
2023/01/17 04:26:29;;;;;;;21.83;20.83;;;2.50;99.90;;;;;;4824721;29;20187;-67
2023/01/17 04:28:55;;;;;;;5.30;5.00;;;2.30;99.90;;;;;;4806955;29;20761;-66
2023/01/17 04:31:21;;;;;;;5.40;5.20;;;2.10;99.90;;;;;;4837854;29;20309;-67
2023/01/17 04:33:46;;;;;;;6.63;6.33;;;1.90;99.90;;;;;;4841013;29;20657;-67
2023/01/17 04:36:12;;;;;;;5.50;5.30;;;1.80;99.90;;;;;;4841541;29;20193;-67
2023/01/17 04:38:38;;;;;;;7.37;7.07;;;1.80;99.90;;;;;;4839502;29;20308;-67
2023/01/17 04:41:04;;;;;;;11.20;10.57;;;1.80;99.90;;;;;;4822891;29;20221;-67
2023/01/17 04:43:30;;;;;;;20.77;19.77;;;1.70;99.90;;;;;;4837891;29;20664;-67
2023/01/17 04:45:57;;;;;;;11.70;11.20;;;1.70;99.90;;;;;;4837872;29;20555;-67
2023/01/17 04:48:23;;;;;;;9.90;9.27;;;1.60;99.90;;;;;;4821050;29;20208;-68
2023/01/17 04:50:49;;;;;;;9.40;9.00;;;1.70;99.90;;;;;;4823053;29;20245;-69
2023/01/17 04:53:15;;;;;;;12.97;12.37;;;1.60;99.90;;;;;;4837867;29;20195;-68
2023/01/17 04:55:45;;;;;;;10.53;10.03;;;1.60;99.90;;;;;;4823635;29;20219;-67
2023/01/17 04:58:11;;;;;;;9.57;8.97;;;1.70;99.90;;;;;;4822968;29;20278;-68
2023/01/17 05:00:37;;;;;;;7.37;6.93;;;1.60;99.90;;;;;;4822243;29;20515;-67
2023/01/17 05:03:02;;;;;;;8.00;7.50;;;1.50;99.90;;;;;;4821996;29;20204;-67
2023/01/17 05:05:28;;;;;;;8.60;8.00;;;1.50;99.90;;;;;;4822218;29;20189;-67
2023/01/17 05:07:55;;;;;;;8.40;8.00;;;1.50;99.90;;;;;;4822318;29;20190;-66
2023/01/17 05:10:22;;;;;;;8.67;8.17;;;1.50;99.90;;;;;;4822777;29;20204;-67
2023/01/17 05:12:58;;;;;;;9.70;9.10;;;1.40;99.90;;;;;;4822724;29;20191;-67
2023/01/17 05:15:25;;;;;;;9.70;8.90;;;1.40;99.90;;;;;;4822172;29;20311;-67
2023/01/17 05:17:52;;;;;;;8.37;7.97;;;1.50;99.90;;;;;;4821125;29;20670;-67
2023/01/17 05:20:22;;;;;;;26.03;24.60;;;1.50;99.90;;;;;;4829191;29;20214;-68
2023/01/17 05:22:55;;;;;;;26.03;24.70;;;1.50;99.90;;;;;;4822257;29;20206;-67
2023/01/17 05:25:26;;;;;;;23.70;22.60;;;1.60;99.90;;;;;;4826053;29;20283;-67
2023/01/17 05:27:52;;;;;;;25.23;23.63;;;1.50;99.90;;;;;;4820004;29;20190;-68
2023/01/17 05:30:19;;;;;;;27.87;26.03;;;1.60;99.90;;;;;;4819947;29;20191;-67
2023/01/17 05:32:49;;;;;;;24.27;23.00;;;1.60;99.90;;;;;;4822485;29;20690;-68
2023/01/17 05:35:20;;;;;;;21.03;19.73;;;1.60;99.90;;;;;;4821119;29;20201;-69
2023/01/17 05:37:50;;;;;;;14.33;13.63;;;1.60;99.90;;;;;;4821104;29;20763;-69
2023/01/17 05:40:17;;;;;;;12.27;11.30;;;1.50;99.90;;;;;;4822663;29;20230;-69
2023/01/17 05:42:47;;;;;;;12.60;11.83;;;1.40;99.90;;;;;;4822940;29;20201;-68
2023/01/17 05:45:15;;;;;;;14.50;13.67;;;1.40;99.90;;;;;;4822160;29;20620;-68
2023/01/17 05:47:45;;;;;;;11.37;10.77;;;1.40;99.90;;;;;;4821854;29;20194;-68
2023/01/17 05:50:13;;;;;;;16.43;15.53;;;1.40;99.90;;;;;;4822764;29;20197;-68
2023/01/17 05:52:40;;;;;;;15.77;14.70;;;1.40;99.90;;;;;;4822477;29;20210;-68
2023/01/17 05:55:06;;;;;;;7.50;6.77;;;1.30;99.90;;;;;;4822513;29;20257;-68
2023/01/17 05:57:33;;;;;;;6.90;6.50;;;1.20;99.90;;;;;;4821965;29;20194;-68
2023/01/17 05:59:59;;;;;;;7.20;6.63;;;1.10;99.90;;;;;;4822275;29;20667;-68
2023/01/17 06:02:25;;;;;;;6.37;6.03;;;1.00;99.90;;;;;;4821777;29;20249;-68
2023/01/17 06:04:50;;;;;;;7.80;7.10;;;0.90;99.90;;;;;;4819439;29;20190;-67
2023/01/17 06:07:16;;;;;;;8.07;7.57;;;0.80;99.90;;;;;;4826275;29;20692;-68
2023/01/17 06:09:42;;;;;;;9.67;8.97;;;0.70;99.90;;;;;;4818212;29;20194;-68
2023/01/17 06:12:08;;;;;;;8.43;7.83;;;0.70;99.90;;;;;;4822396;29;20715;-67
2023/01/17 06:14:33;;;;;;;7.57;7.03;;;0.60;99.90;;;;;;4840105;29;20202;-68
2023/01/17 06:16:59;;;;;;;7.57;7.07;;;0.50;99.90;;;;;;4838614;29;20186;-68
2023/01/17 06:19:25;;;;;;;7.90;7.37;;;0.50;99.90;;;;;;4838747;29;20221;-68
2023/01/17 06:21:51;;;;;;;10.87;10.17;;;0.40;99.90;;;;;;4839643;29;20212;-68
2023/01/17 06:24:17;;;;;;;10.43;9.83;;;0.40;99.90;;;;;;4839993;29;20677;-68
2023/01/17 06:26:43;;;;;;;16.40;15.10;;;0.30;99.90;;;;;;4839678;29;20186;-68
2023/01/17 06:29:12;;;;;;;29.67;28.03;;;0.30;99.90;;;;;;4838256;29;20243;-68
2023/01/17 06:31:38;;;;;;;14.63;13.67;;;0.20;99.90;;;;;;4839962;29;20247;-68
2023/01/17 06:34:04;;;;;;;11.43;10.83;;;0.20;99.90;;;;;;4839868;29;20267;-68
2023/01/17 06:36:31;;;;;;;10.97;10.47;;;0.20;99.90;;;;;;4839725;29;20199;-68
2023/01/17 06:38:57;;;;;;;16.83;15.87;;;0.10;99.90;;;;;;4839743;29;20227;-66
2023/01/17 06:41:24;;;;;;;18.47;17.27;;;0.10;99.90;;;;;;4839510;29;20311;-66
2023/01/17 06:43:52;;;;;;;20.23;18.97;;;0.10;99.90;;;;;;4839957;29;20815;-66
2023/01/17 06:46:18;;;;;;;24.17;22.67;;;0.20;99.90;;;;;;4839757;29;20677;-66
2023/01/17 06:48:44;;;;;;;34.40;32.30;;;0.20;99.90;;;;;;4839760;29;20185;-66
2023/01/17 06:51:10;;;;;;;18.83;17.63;;;0.10;99.90;;;;;;4839500;29;20227;-66
2023/01/17 06:53:36;;;;;;;16.40;15.47;;;-0.10;99.90;;;;;;4839963;29;20667;-66
2023/01/17 06:56:02;;;;;;;29.40;27.67;;;-0.20;99.90;;;;;;4839569;29;20194;-67
2023/01/17 06:58:28;;;;;;;40.57;38.43;;;-0.30;99.90;;;;;;4839175;29;20190;-66
2023/01/17 07:00:53;;;;;;;35.50;33.57;;;-0.40;99.90;;;;;;4839365;29;20231;-66
2023/01/17 07:03:24;;;;;;;34.53;32.73;;;-0.40;99.90;;;;;;4839658;29;20182;-66
2023/01/17 07:05:50;;;;;;;48.60;45.70;;;-0.50;99.90;;;;;;4838397;29;20569;-66
2023/01/17 07:08:16;;;;;;;55.33;52.40;;;-0.50;99.90;;;;;;4838168;29;20182;-66
2023/01/17 07:10:43;;;;;;;62.33;58.93;;;-0.60;99.90;;;;;;4840019;29;20192;-66
2023/01/17 07:13:10;;;;;;;80.30;75.83;;;-0.60;99.90;;;;;;4840476;29;20186;-66
2023/01/17 07:15:36;;;;;;;39.70;37.17;;;-0.60;99.90;;;;;;4843184;29;20668;-66
2023/01/17 07:18:03;;;;;;;18.37;16.87;;;-0.60;99.90;;;;;;4841835;29;20209;-66
2023/01/17 07:20:29;;;;;;;17.60;16.27;;;-0.50;99.90;;;;;;4842683;29;20290;-66
2023/01/17 07:22:55;;;;;;;15.63;14.03;;;-0.40;99.90;;;;;;4843019;29;20189;-66
2023/01/17 07:25:21;;;;;;;16.77;14.37;;;-0.50;99.90;;;;;;4842857;29;20242;-66
2023/01/17 07:27:46;;;;;;;16.43;15.40;;;-0.40;99.90;;;;;;4842346;29;20651;-66
2023/01/17 07:30:13;;;;;;;14.40;13.53;;;-0.40;99.90;;;;;;4843177;29;20190;-68
2023/01/17 07:32:38;;;;;;;12.87;12.07;;;-0.50;99.90;;;;;;4842822;29;20213;-66
2023/01/17 07:35:05;;;;;;;15.90;14.83;;;-0.50;99.90;;;;;;4841334;29;20193;-66
2023/01/17 07:37:31;;;;;;;16.17;14.97;;;-0.40;99.90;;;;;;4842229;29;20272;-64
2023/01/17 07:39:57;;;;;;;17.20;15.83;;;-0.40;99.90;;;;;;4842635;29;20759;-63
2023/01/17 07:42:23;;;;;;;17.30;16.03;;;-0.20;99.90;;;;;;4842440;29;20250;-63
2023/01/17 07:44:49;;;;;;;18.13;16.63;;;-0.20;99.90;;;;;;4842944;29;20198;-63
2023/01/17 07:47:14;;;;;;;16.80;15.50;;;-0.20;99.90;;;;;;4842497;29;20186;-63
2023/01/17 07:49:40;;;;;;;23.17;21.60;;;-0.20;99.90;;;;;;4841392;29;20191;-63
2023/01/17 07:52:06;;;;;;;22.20;20.50;;;-0.20;99.90;;;;;;4842243;29;20229;-66
2023/01/17 07:54:32;;;;;;;15.70;14.70;;;-0.10;99.90;;;;;;4841428;29;20220;-63
2023/01/17 07:56:58;;;;;;;15.57;14.57;;;0.00;99.90;;;;;;4841715;29;20290;-66
2023/01/17 07:59:24;;;;;;;14.63;13.67;;;0.20;99.90;;;;;;4841288;29;20213;-69
2023/01/17 08:01:49;;;;;;;11.57;10.07;;;0.20;99.90;;;;;;4842236;29;20219;-69
2023/01/17 08:05:01;;;;;;;11.20;10.30;;;0.30;99.90;;;;;;5108211;27;20681;-70
2023/01/17 08:07:28;;;;;;;17.20;16.13;;;0.30;99.90;;;;;;5107814;28;20661;-70
2023/01/17 08:09:54;;;;;;;25.37;23.67;;;0.40;99.90;;;;;;5108428;27;20212;-69
2023/01/17 08:12:20;;;;;;;21.77;20.27;;;0.50;99.90;;;;;;5106946;28;20283;-70
2023/01/17 08:14:45;;;;;;;15.07;13.97;;;0.60;99.90;;;;;;5107215;28;20266;-70
2023/01/17 08:17:13;;;;;;;16.07;14.97;;;0.80;99.90;;;;;;5107903;27;20615;-70
2023/01/17 08:19:39;;;;;;;27.80;25.93;;;0.80;99.90;;;;;;5107291;28;20185;-69
2023/01/17 08:22:05;;;;;;;29.50;27.37;;;0.90;99.90;;;;;;5105807;28;20709;-69
2023/01/17 08:24:30;;;;;;;23.10;21.70;;;1.00;99.90;;;;;;5106640;28;20276;-69
2023/01/17 08:26:56;;;;;;;15.20;14.00;;;1.00;99.90;;;;;;5108104;28;20185;-70
2023/01/17 08:29:23;;;;;;;18.00;16.30;;;1.00;99.90;;;;;;5108306;27;20269;-69
2023/01/17 08:31:49;;;;;;;20.20;18.30;;;1.10;99.90;;;;;;5106899;28;20198;-69
2023/01/17 08:34:15;;;;;;;20.73;18.93;;;1.10;99.90;;;;;;5108404;27;20663;-70
2023/01/17 08:36:42;;;;;;;17.27;16.03;;;1.30;99.90;;;;;;5106786;28;20185;-70
2023/01/17 08:39:08;;;;;;;23.93;21.83;;;1.30;99.90;;;;;;5108006;28;20183;-70
2023/01/17 08:41:34;;;;;;;39.87;37.27;;;1.40;99.90;;;;;;5107979;28;20338;-70
2023/01/17 08:44:01;;;;;;;20.10;18.57;;;1.50;99.90;;;;;;5107056;28;20197;-70
2023/01/17 08:46:27;;;;;;;20.97;19.40;;;1.50;99.90;;;;;;5106647;28;20520;-70
2023/01/17 08:49:01;;;;;;;16.57;15.37;;;1.50;99.90;;;;;;5107800;28;20190;-71
2023/01/17 08:51:28;;;;;;;10.60;9.70;;;1.60;99.90;;;;;;5106717;28;20691;-71
2023/01/17 08:53:55;;;;;;;12.87;11.77;;;1.70;99.90;;;;;;5107848;28;20233;-70
2023/01/17 08:56:22;;;;;;;14.77;13.47;;;1.70;99.90;;;;;;5107662;28;20184;-71
2023/01/17 08:58:48;;;;;;;15.07;13.97;;;1.80;99.90;;;;;;5107517;28;20267;-71
2023/01/17 09:01:14;;;;;;;12.67;11.53;;;1.80;99.90;;;;;;5106695;28;20203;-71
2023/01/17 09:03:40;;;;;;;16.37;15.37;;;1.80;99.90;;;;;;5107450;27;20204;-71
2023/01/17 09:06:09;;;;;;;18.90;17.60;;;2.10;99.90;;;;;;5107586;28;20653;-70
2023/01/17 09:08:36;;;;;;;10.27;9.27;;;2.40;99.90;;;;;;5107280;28;20539;-69
2023/01/17 09:11:10;;;;;;;12.70;11.33;;;2.80;99.90;;;;;;5106370;28;20308;-70
2023/01/17 09:13:36;;;;;;;16.07;15.03;;;3.20;99.90;;;;;;5106256;28;20186;-71
2023/01/17 09:16:03;;;;;;;12.17;11.33;;;3.90;99.90;;;;;;5096649;27;20588;-70
2023/01/17 09:18:30;;;;;;;9.63;8.67;;;4.70;99.90;;;;;;5093310;28;20556;-70
2023/01/17 09:20:58;;;;;;;10.67;9.87;;;4.70;99.90;;;;;;5093828;28;20254;-70
2023/01/17 09:23:29;;;;;;;13.67;12.87;;;4.70;99.90;;;;;;5093869;28;20219;-71
2023/01/17 09:25:56;;;;;;;16.20;15.23;;;4.70;99.90;;;;;;5092679;28;20272;-70
2023/01/17 09:28:23;;;;;;;9.90;9.10;;;4.80;99.90;;;;;;5093414;28;20208;-71
2023/01/17 09:30:49;;;;;;;9.87;9.17;;;5.00;99.90;;;;;;5076972;28;20214;-71
2023/01/17 09:33:16;;;;;;;11.17;10.33;;;5.20;99.90;;;;;;5073613;28;20227;-71
2023/01/17 09:35:42;;;;;;;9.93;9.33;;;5.50;99.90;;;;;;5081109;28;20180;-71
2023/01/17 09:38:09;;;;;;;11.73;10.93;;;5.80;99.90;;;;;;5092945;28;20223;-71
2023/01/17 09:40:37;;;;;;;11.60;10.80;;;6.20;99.90;;;;;;5093051;28;20235;-71
2023/01/17 09:43:10;;;;;;;9.03;8.20;;;6.70;99.90;;;;;;5092427;28;20200;-71
2023/01/17 09:45:36;;;;;;;8.97;7.57;;;6.50;99.90;;;;;;5091800;28;20219;-71
2023/01/17 09:48:08;;;;;;;8.60;7.73;;;6.10;99.90;;;;;;5091749;28;20181;-71
2023/01/17 09:50:49;;;;;;;12.00;10.23;;;6.60;99.90;;;;;;5092933;28;20188;-71
2023/01/17 09:53:19;;;;;;;12.70;11.50;;;6.70;99.90;;;;;;5093266;28;20737;-71
2023/01/17 09:56:03;;;;;;;11.17;10.40;;;6.90;99.90;;;;;;5092849;28;20694;-71
2023/01/17 09:58:42;;;;;;;9.80;9.10;;;7.80;99.90;;;;;;5091322;28;20263;-71
2023/01/17 10:01:13;;;;;;;7.50;7.00;;;8.50;99.90;;;;;;5092931;28;20632;-71
2023/01/17 10:03:42;;;;;;;7.80;7.10;;;8.60;99.90;;;;;;5092825;28;20208;-71
2023/01/17 10:06:07;;;;;;;6.67;6.27;;;8.60;99.90;;;;;;5091249;28;20196;-70
2023/01/17 10:08:42;;;;;;;7.17;6.67;;;8.60;99.90;;;;;;5092434;28;20215;-71
2023/01/17 10:11:26;;;;;;;6.20;5.70;;;9.60;99.90;;;;;;5093264;28;20204;-71
2023/01/17 10:13:58;;;;;;;6.13;5.63;;;10.40;99.90;;;;;;5092255;28;20212;-71
2023/01/17 10:16:40;;;;;;;7.93;7.23;;;11.20;99.90;;;;;;5091457;28;20181;-71
2023/01/17 10:19:33;;;;;;;7.90;7.30;;;11.90;99.90;;;;;;5092127;28;20271;-71
2023/01/17 10:22:37;;;;;;;8.33;7.63;;;12.80;99.90;;;;;;5092398;28;20212;-71
2023/01/17 10:25:26;;;;;;;7.43;6.90;;;11.90;99.90;;;;;;5092106;28;20764;-71
2023/01/17 10:27:58;;;;;;;7.17;6.57;;;11.80;99.90;;;;;;5084180;28;20664;-71
2023/01/17 10:30:27;;;;;;;7.57;6.90;;;11.90;99.90;;;;;;5091828;28;20242;-70
2023/01/17 10:32:58;;;;;;;8.67;8.07;;;12.60;99.90;;;;;;5092367;28;20177;-70
2023/01/17 10:35:32;;;;;;;10.77;10.03;;;12.80;99.90;;;;;;5090015;28;20206;-70
2023/01/17 10:38:02;;;;;;;11.80;10.97;;;12.50;99.90;;;;;;5091860;28;20187;-70
2023/01/17 10:40:39;;;;;;;14.27;13.43;;;12.80;99.90;;;;;;5092058;28;20184;-70
2023/01/17 10:43:11;;;;;;;14.33;13.63;;;13.00;99.90;;;;;;5092168;28;20208;-71
2023/01/17 10:45:50;;;;;;;13.90;13.10;;;13.50;99.90;;;;;;5090912;28;20181;-71
2023/01/17 10:48:25;;;;;;;9.40;8.90;;;13.70;99.90;;;;;;5091721;28;20279;-70
2023/01/17 10:51:02;;;;;;;6.80;6.50;;;14.00;97.30;;;;;;5091463;28;20333;-70
2023/01/17 10:53:38;;;;;;;6.20;5.90;;;13.90;93.70;;;;;;5090763;28;20202;-70
2023/01/17 10:56:05;;;;;;;6.20;5.63;;;14.10;94.10;;;;;;5090361;28;20188;-71
2023/01/17 10:58:31;;;;;;;6.90;6.40;;;14.10;93.50;;;;;;5090893;28;20188;-71
2023/01/17 11:01:06;;;;;;;5.97;5.67;;;14.10;93.70;;;;;;5091628;28;20208;-71
2023/01/17 11:03:33;;;;;;;4.70;4.40;;;14.50;93.00;;;;;;5091519;28;20208;-70
2023/01/17 11:06:18;;;;;;;6.00;5.60;;;14.60;88.20;;;;;;5090114;28;20208;-71
2023/01/17 11:08:55;;;;;;;7.00;6.50;;;14.30;87.60;;;;;;5091145;28;20188;-70
2023/01/17 11:11:24;;;;;;;5.93;5.53;;;14.10;88.70;;;;;;5091656;28;20192;-70
2023/01/17 11:13:53;;;;;;;5.63;5.33;;;13.90;86.40;;;;;;5091299;28;20184;-71
2023/01/17 11:16:24;;;;;;;7.20;6.80;;;14.10;84.00;;;;;;5091268;28;20857;-71
2023/01/17 11:19:17;;;;;;;8.07;7.57;;;14.60;81.30;;;;;;5089920;28;20181;-71
2023/01/17 11:21:56;;;;;;;10.27;9.37;;;14.10;81.00;;;;;;5089996;28;20204;-71
2023/01/17 11:24:39;;;;;;;9.80;7.63;;;13.50;82.00;;;;;;5091321;28;20208;-71
2023/01/17 11:27:06;;;;;;;9.33;8.73;;;14.20;80.70;;;;;;5090966;28;20173;-71
2023/01/17 11:29:37;;;;;;;8.37;7.90;;;14.20;79.90;;;;;;5091238;28;20176;-71
2023/01/17 11:32:28;;;;;;;12.53;11.73;;;14.30;77.40;;;;;;5091275;28;20749;-71
2023/01/17 11:35:05;;;;;;;5.70;5.40;;;14.80;72.80;;;;;;5091188;28;20211;-71
2023/01/17 11:37:31;;;;;;;5.27;5.07;;;15.00;70.80;;;;;;5089581;28;20179;-71
2023/01/17 11:40:40;;;;;;;5.80;5.50;;;14.70;67.70;;;;;;5091867;28;20180;-71
2023/01/17 11:43:11;;;;;;;5.83;5.40;;;15.10;66.00;;;;;;5068326;28;20213;-71
2023/01/17 11:45:39;;;;;;;5.10;4.90;;;15.20;65.10;;;;;;5051944;28;20174;-71
2023/01/17 11:48:07;;;;;;;5.73;5.53;;;15.10;64.90;;;;;;5079869;28;20189;-71
2023/01/17 11:50:36;;;;;;;5.17;5.00;;;15.20;61.10;;;;;;5093881;28;20186;-72
2023/01/17 11:53:23;;;;;;;4.80;4.60;;;14.30;62.50;;;;;;5095635;28;20648;-71
2023/01/17 11:56:17;;;;;;;4.90;4.60;;;14.40;63.70;;;;;;5090730;28;20660;-71
2023/01/17 11:58:46;;;;;;;4.73;4.43;;;13.60;61.40;;;;;;5090178;28;20283;-71
2023/01/17 12:01:28;;;;;;;4.43;4.23;;;12.20;66.70;;;;;;5090938;28;20646;-72
2023/01/17 12:04:06;;;;;;;4.37;4.27;;;12.60;67.70;;;;;;5090616;28;20219;-71
2023/01/17 12:06:55;;;;;;;4.37;4.17;;;13.20;65.20;;;;;;5090910;28;20233;-71
2023/01/17 12:09:52;;;;;;;4.10;3.90;;;13.10;64.80;;;;;;5087309;28;20557;-71
2023/01/17 12:15:58;;;;;;;4.20;3.90;;;12.20;68.90;;;;;;5090961;28;20184;-71
2023/01/17 12:18:48;;;;;;;5.43;5.23;;;11.60;68.50;;;;;;5090353;28;20181;-71
2023/01/17 12:21:19;;;;;;;5.80;5.50;;;11.00;73.00;;;;;;5090758;28;20196;-71
2023/01/17 12:24:16;;;;;;;4.70;4.50;;;10.20;73.90;;;;;;5089463;28;20224;-70
2023/01/17 12:26:52;;;;;;;4.80;4.60;;;9.50;74.40;;;;;;5090614;28;20197;-71
2023/01/17 12:29:26;;;;;;;4.33;4.13;;;9.10;74.60;;;;;;5090406;28;20267;-71
2023/01/17 12:32:10;;;;;;;3.87;3.77;;;9.10;75.10;;;;;;5090511;28;20196;-71
2023/01/17 12:34:42;;;;;;;5.73;5.43;;;9.50;75.40;;;;;;5090421;28;20181;-71
2023/01/17 12:37:30;;;;;;;5.60;5.30;;;9.40;76.20;;;;;;5089468;28;20546;-73
2023/01/17 12:40:03;;;;;;;5.07;4.87;;;9.50;77.80;;;;;;5090679;28;20184;-73
2023/01/17 12:42:39;;;;;;;5.23;5.03;;;9.30;77.70;;;;;;5091036;28;20205;-73
2023/01/17 12:45:21;;;;;;;4.40;4.20;;;9.10;78.70;;;;;;5089202;28;20257;-72
2023/01/17 12:47:53;;;;;;;5.20;4.90;;;9.00;78.00;;;;;;5090250;28;20185;-72
2023/01/17 12:50:40;;;;;;;10.23;5.00;;;8.70;79.50;;;;;;5090656;28;20546;-72
2023/01/17 12:53:31;;;;;;;5.07;4.77;;;8.00;82.30;;;;;;5094429;28;20192;-69
2023/01/17 12:56:07;;;;;;;5.27;5.00;;;7.50;82.80;;;;;;5080270;28;20205;-69
2023/01/17 12:58:43;;;;;;;6.30;6.00;;;7.30;84.50;;;;;;5092382;28;20210;-70
2023/01/17 13:01:31;;;;;;;5.73;5.23;;;7.10;85.80;;;;;;5093510;28;20208;-71
2023/01/17 13:04:23;;;;;;;5.50;5.30;;;6.90;86.00;;;;;;5093795;28;20231;-70
2023/01/17 13:07:12;;;;;;;6.00;5.53;;;6.80;87.20;;;;;;5092186;28;20533;-70
2023/01/17 13:09:44;;;;;;;4.93;4.67;;;6.60;87.10;;;;;;5093149;28;20215;-69
2023/01/17 13:12:15;;;;;;;5.23;5.03;;;6.60;89.40;;;;;;5093616;28;20197;-70
2023/01/17 13:14:41;;;;;;;5.20;4.80;;;6.60;88.70;;;;;;5092500;28;20192;-70
2023/01/17 13:17:25;;;;;;;5.10;4.80;;;7.20;89.10;;;;;;5092996;28;20181;-70
2023/01/17 13:20:21;;;;;;;5.80;5.40;;;7.30;85.90;;;;;;5093625;28;20588;-70
2023/01/17 13:22:49;;;;;;;5.20;5.00;;;7.30;85.90;;;;;;5076960;28;20213;-70
2023/01/17 13:25:48;;;;;;;5.90;5.60;;;6.90;87.50;;;;;;5093229;28;20592;-70
2023/01/17 13:28:57;;;;;;;4.43;4.23;;;6.60;87.90;;;;;;5093190;28;20184;-70
2023/01/17 13:31:31;;;;;;;4.90;4.60;;;6.40;89.20;;;;;;5069362;28;20741;-70
2023/01/17 13:34:21;;;;;;;5.13;4.83;;;6.30;90.50;;;;;;5093398;28;20279;-69
2023/01/17 13:37:03;;;;;;;4.70;4.40;;;6.20;90.30;;;;;;5092095;28;20232;-70
2023/01/17 13:39:49;;;;;;;4.83;4.43;;;6.00;90.70;;;;;;5093305;28;20188;-70
2023/01/17 13:42:51;;;;;;;4.70;4.40;;;6.00;91.50;;;;;;5093320;28;20236;-70
2023/01/17 13:45:20;;;;;;;6.40;5.80;;;5.90;91.00;;;;;;5091779;28;20188;-70
2023/01/17 13:47:46;;;;;;;7.00;6.30;;;5.90;92.10;;;;;;5092848;28;20178;-70
2023/01/17 13:50:44;;;;;;;5.37;4.93;;;5.80;91.70;;;;;;5093685;28;20531;-70
2023/01/17 13:53:38;;;;;;;6.07;5.57;;;5.70;91.90;;;;;;5093999;28;20180;-69
2023/01/17 13:56:30;;;;;;;6.77;5.53;;;5.80;92.30;;;;;;5094450;28;20691;-69
2023/01/17 13:59:01;;;;;;;7.23;5.27;;;5.70;92.20;;;;;;5092613;28;20188;-69
2023/01/17 14:01:38;;;;;;;6.73;5.90;;;5.70;92.20;;;;;;5092415;28;20201;-70
2023/01/17 14:04:08;;;;;;;6.53;6.03;;;5.60;92.70;;;;;;5092746;28;20265;-70
2023/01/17 14:06:40;;;;;;;7.47;6.30;;;5.60;92.10;;;;;;5092784;28;20548;-70
2023/01/17 14:09:11;;;;;;;5.80;5.40;;;5.50;92.90;;;;;;5092035;28;20183;-70
2023/01/17 14:12:05;;;;;;;5.10;4.80;;;5.50;93.40;;;;;;5092415;28;20216;-70
2023/01/17 14:14:40;;;;;;;5.10;4.80;;;5.40;93.30;;;;;;5092398;28;20185;-70
2023/01/17 14:17:15;;;;;;;6.53;6.00;;;5.40;93.10;;;;;;5091984;28;20228;-70
2023/01/17 14:19:46;;;;;;;5.93;5.33;;;5.30;93.40;;;;;;5092122;28;20175;-70
2023/01/17 14:22:17;;;;;;;7.63;5.73;;;5.30;94.20;;;;;;5092405;28;20239;-70
2023/01/17 14:25:10;;;;;;;6.43;6.03;;;5.20;94.30;;;;;;5092118;28;20204;-70
2023/01/17 14:28:04;;;;;;;6.17;5.67;;;5.30;94.60;;;;;;5090863;28;20230;-70
2023/01/17 14:30:35;;;;;;;6.10;5.60;;;5.20;94.40;;;;;;5090655;28;20232;-70
2023/01/17 14:33:01;;;;;;;6.60;5.97;;;5.10;94.80;;;;;;5092448;28;20723;-70
2023/01/17 14:35:35;;;;;;;6.83;6.13;;;5.10;94.80;;;;;;5092157;28;20226;-70
2023/01/17 14:38:04;;;;;;;12.67;6.17;;;5.00;94.90;;;;;;5090834;28;20188;-70
2023/01/17 14:40:37;;;;;;;5.93;5.47;;;5.00;95.50;;;;;;5092083;28;20208;-70
2023/01/17 14:43:11;;;;;;;6.73;6.23;;;4.90;95.50;;;;;;5092408;28;20191;-70
2023/01/17 14:45:38;;;;;;;6.97;6.47;;;4.80;96.10;;;;;;5091938;28;20177;-70
2023/01/17 14:48:11;;;;;;;7.13;6.43;;;4.80;96.40;;;;;;5090420;28;20198;-70
2023/01/17 14:50:39;;;;;;;6.60;6.10;;;4.80;96.30;;;;;;5091020;28;20567;-70
2023/01/17 14:53:14;;;;;;;7.60;7.10;;;4.70;96.30;;;;;;5091589;28;20272;-70
2023/01/17 14:55:56;;;;;;;7.40;6.57;;;4.60;96.30;;;;;;5091886;28;20200;-70
2023/01/17 14:58:27;;;;;;;7.43;6.73;;;4.60;96.30;;;;;;5091459;28;20272;-69
2023/01/17 15:01:10;;;;;;;6.90;6.20;;;4.60;97.20;;;;;;5091365;28;20234;-69
2023/01/17 15:03:50;;;;;;;9.20;8.30;;;4.50;96.90;;;;;;5091547;28;20261;-71
2023/01/17 15:06:28;;;;;;;8.27;7.33;;;4.50;97.80;;;;;;5091857;28;20602;-69
2023/01/17 15:08:54;;;;;;;7.10;6.53;;;4.40;97.20;;;;;;5091150;28;20187;-70
2023/01/17 15:11:26;;;;;;;8.60;7.83;;;4.40;97.40;;;;;;5091526;28;20687;-69
2023/01/17 15:13:56;;;;;;;8.17;7.57;;;4.40;97.70;;;;;;5090627;28;20568;-70
2023/01/17 15:16:22;;;;;;;9.90;8.97;;;4.30;97.80;;;;;;5091245;28;20644;-70
2023/01/17 15:18:50;;;;;;;9.07;8.27;;;4.30;98.20;;;;;;5091338;28;20191;-69
2023/01/17 15:21:19;;;;;;;8.63;7.93;;;4.20;97.80;;;;;;5092196;28;20199;-70
2023/01/17 15:23:49;;;;;;;9.83;8.93;;;4.20;98.00;;;;;;5092180;28;20216;-70
2023/01/17 15:26:18;;;;;;;8.80;8.20;;;4.20;98.20;;;;;;5090527;28;20182;-70
2023/01/17 15:28:45;;;;;;;14.00;8.67;;;4.20;98.50;;;;;;5091181;28;20238;-70
2023/01/17 15:31:48;;;;;;;10.50;9.57;;;4.10;99.10;;;;;;5089788;28;20340;-70
2023/01/17 15:34:29;;;;;;;10.43;8.17;;;4.10;99.20;;;;;;5091303;28;20197;-70
2023/01/17 15:37:04;;;;;;;9.17;8.13;;;4.10;99.30;;;;;;5091351;28;20180;-70
2023/01/17 15:39:34;;;;;;;9.73;8.83;;;4.10;98.90;;;;;;5091398;28;20195;-70
2023/01/17 15:42:17;;;;;;;9.63;8.87;;;4.10;99.30;;;;;;5091438;28;20744;-70
2023/01/17 15:44:44;;;;;;;12.03;9.53;;;4.00;99.50;;;;;;5084291;28;20206;-69
2023/01/17 15:47:30;;;;;;;8.57;7.87;;;4.00;99.20;;;;;;5073892;28;20596;-70
2023/01/17 15:49:56;;;;;;;8.87;7.97;;;3.90;99.50;;;;;;5069816;28;20180;-70
2023/01/17 15:52:25;;;;;;;7.73;7.03;;;3.90;99.60;;;;;;5095966;28;20211;-70
2023/01/17 15:54:57;;;;;;;7.83;7.03;;;3.90;99.90;;;;;;5101151;28;20652;-70
2023/01/17 15:57:29;;;;;;;7.67;7.03;;;3.90;99.90;;;;;;5091022;28;20193;-70
2023/01/17 16:00:19;;;;;;;7.50;6.90;;;3.90;99.90;;;;;;5090006;28;20188;-70
2023/01/17 16:02:48;;;;;;;8.57;7.77;;;3.80;99.90;;;;;;5091317;28;20273;-70
2023/01/17 16:05:23;;;;;;;9.93;8.07;;;3.80;99.90;;;;;;5078595;28;20217;-70
2023/01/17 16:07:50;;;;;;;7.83;7.03;;;3.80;99.90;;;;;;5069127;28;20177;-70
2023/01/17 16:10:20;;;;;;;7.77;7.07;;;3.80;99.90;;;;;;5070208;28;20862;-70
2023/01/17 16:12:47;;;;;;;7.37;6.77;;;3.80;99.90;;;;;;5070330;28;20227;-69
2023/01/17 16:15:13;;;;;;;8.43;6.67;;;3.80;99.90;;;;;;5079538;28;20182;-70
2023/01/17 16:17:44;;;;;;;8.03;7.43;;;3.80;99.90;;;;;;5090288;28;20266;-69
2023/01/17 16:20:20;;;;;;;8.00;7.20;;;3.80;99.90;;;;;;5089580;28;20312;-69
2023/01/17 16:22:47;;;;;;;9.30;8.40;;;3.80;99.90;;;;;;5090185;28;20825;-69
2023/01/17 16:25:18;;;;;;;12.23;8.33;;;3.80;99.90;;;;;;5082557;28;20233;-69
2023/01/17 16:27:45;;;;;;;18.63;15.33;;;3.80;99.90;;;;;;5094116;28;20181;-70
2023/01/17 16:30:16;;;;;;;10.47;9.20;;;3.80;99.90;;;;;;5094711;28;20218;-71
2023/01/17 16:32:47;;;;;;;13.50;10.50;;;3.90;99.90;;;;;;5094598;28;20200;-69
2023/01/17 16:35:19;;;;;;;11.10;9.23;;;3.90;99.90;;;;;;5083105;28;20184;-70
2023/01/17 16:37:54;;;;;;;13.17;10.27;;;3.90;99.90;;;;;;5074059;28;20196;-77
2023/01/17 16:40:22;;;;;;;18.93;11.53;;;3.90;99.90;;;;;;5093317;28;20275;-76
2023/01/17 16:42:48;;;;;;;12.63;9.87;;;3.90;99.90;;;;;;5088619;28;20189;-76
2023/01/17 16:45:14;;;;;;;11.00;10.10;;;3.90;99.90;;;;;;5093120;28;20352;-76
2023/01/17 16:47:41;;;;;;;10.10;9.10;;;3.90;99.90;;;;;;5092818;28;20263;-76
2023/01/17 16:50:10;;;;;;;10.90;9.27;;;3.90;99.90;;;;;;5093529;28;20181;-76
2023/01/17 16:52:36;;;;;;;19.07;10.13;;;3.90;99.90;;;;;;5094519;28;20221;-76
2023/01/17 16:55:04;;;;;;;15.63;9.70;;;3.90;99.90;;;;;;5089041;28;20262;-77
2023/01/17 16:57:30;;;;;;;10.00;9.00;;;3.90;99.90;;;;;;5074892;28;20177;-76
2023/01/17 16:59:55;;;;;;;15.10;8.83;;;3.90;99.90;;;;;;5073765;28;20280;-77
2023/01/17 17:02:21;;;;;;;17.57;11.67;;;3.90;99.90;;;;;;5076714;28;20731;-76
2023/01/17 17:04:47;;;;;;;17.53;12.80;;;3.80;99.90;;;;;;5075799;28;20303;-76
2023/01/17 17:07:13;;;;;;;14.57;10.97;;;3.90;99.90;;;;;;5096956;28;20219;-77
2023/01/17 17:09:39;;;;;;;12.50;10.27;;;3.90;99.90;;;;;;5094032;28;20267;-77
2023/01/17 17:12:05;;;;;;;13.13;9.67;;;3.90;99.90;;;;;;5089612;28;20215;-76
2023/01/17 17:14:31;;;;;;;13.23;10.00;;;3.90;99.90;;;;;;5100629;28;20195;-76